Aérodrome :
LOGIN :

S'inscrire | Disclaimer

   EN    FR    IT 

 










Légende :    VFR   VFR Marginal   IFR   IFR Intensif   IFR Très Intensif
Visi : 
Plafond : 
>= 8 km
>= 3000ft
5 à 8 km
1000 à 3000 ft
1500m à 5 km
500 à 1000 ft
800 à 1500m
200 à 500 ft
< 800m
< 200 ft
Symboles :   Orages  Brouillard  Fortes neiges  Fortes précipitations  Vent > 20 kt
SIGMETs :   Divers  Orages  Givrage  Turbulence  Onde Orograph.  Cendres Volcan.






- Altitude de l'aérodrome : 1708 ft
- Code IATA : SJJ


LQSA - Sarajevo

DERNIER METAR :
  • 270600Z VRB01KT CAVOK 12/12 Q1020 NSIG

METARs EXPIRÉS :
  • 270530Z VRB01KT 9999 FEW008 11/11 Q1020
  • 270500Z VRB01KT CAVOK 11/11 Q1020
  • 270430Z VRB02KT 9999 FEW060 11/11 Q1020
  • 270400Z 00000KT CAVOK 11/11 Q1020
  • 270330Z 00000KT CAVOK 11/11 Q1020

TAF TAF LQSA
Valide du 27 à 06h jusqu'au 28 à 06h UTC


270550Z 2706/2806 VRB02KT 9999 SCT050 TX27/2713Z TN10/2804Z
PROB30
TEMPO 2714/2720 33012KT TSRA FEW035CB BKN045
PROB40
TEMPO 2720/2804 VRB12KT TSRA FEW030CB BKN040



MET'MAP, la Météo Aéronautique d'un coup d'oeil ! - Copyright ORBIFLY Décembre 2007 - Disclaimer

ORBIFLY MET'MAP TEAM :

Programmation & Développement : Alexandra Zaïnal
Sur une idée originale de : Baudouin d'Aumeries
Assistance à la programmation : Marc-Olivier Méhu
Soutien technique & logistique : Manuel Goepfert

Contact : metmap@orbifly.com




SOURCES & CREDITS :

   NOAA